Time;durP1;ratioP1;P1;durP2;ratioP2;P2;SDS_P1;SDS_P2;PMS_P1;PMS_P2;Temp;Humidity;BMP_temperature;BMP_pressure;BME280_temperature;BME280_humidity;BME280_pressure;Samples;Min_cycle;Max_cycle;Signal;HPM_P1;HPM_P2
2022/06/13 14:24:45;;;;;;;1.87;1.10;;;24.10;58.50;;;;;;5052706;28;20619;-67
2022/06/13 14:27:11;;;;;;;1.43;1.33;;;23.80;58.90;;;;;;5048708;28;20409;-67
2022/06/13 14:29:42;;;;;;;1.30;1.30;;;23.90;59.80;;;;;;5050663;28;20896;-65
2022/06/13 14:32:13;;;;;;;2.13;1.60;;;24.10;59.40;;;;;;5047243;28;20207;-67
2022/06/13 14:35:11;;;;;;;1.40;1.30;;;24.20;58.40;;;;;;5048304;28;20435;-67
2022/06/13 14:37:43;;;;;;;3.33;1.37;;;24.20;59.20;;;;;;5048290;28;20432;-67
2022/06/13 14:40:36;;;;;;;1.40;1.30;;;24.30;58.40;;;;;;5051698;28;20901;-67
2022/06/13 14:43:09;;;;;;;1.53;1.43;;;24.40;58.70;;;;;;5047625;28;20456;-67
2022/06/13 14:45:57;;;;;;;1.43;1.33;;;24.30;57.50;;;;;;5050483;28;20853;-69
2022/06/13 14:48:38;;;;;;;1.30;1.20;;;24.40;59.30;;;;;;5049027;28;20416;-66
2022/06/13 14:51:13;;;;;;;1.10;1.00;;;24.30;57.60;;;;;;5037395;28;20474;-67
2022/06/13 14:54:18;;;;;;;1.57;1.40;;;24.30;58.40;;;;;;5048587;28;20528;-68
2022/06/13 14:56:44;;;;;;;1.40;1.30;;;24.10;57.60;;;;;;5047969;28;20440;-66
2022/06/13 14:59:13;;;;;;;1.57;1.47;;;24.00;59.10;;;;;;5048208;28;20469;-64
2022/06/13 15:01:45;;;;;;;1.70;1.60;;;23.90;58.70;;;;;;5049993;28;20680;-66
2022/06/13 15:04:17;;;;;;;1.20;1.20;;;23.80;57.90;;;;;;5048342;28;20450;-65
2022/06/13 15:06:54;;;;;;;3.27;2.00;;;23.60;58.50;;;;;;5049380;28;20417;-68
2022/06/13 15:09:31;;;;;;;7.90;5.30;;;23.50;58.70;;;;;;5049098;28;20468;-67
2022/06/13 15:12:01;;;;;;;2.10;1.93;;;23.40;58.70;;;;;;5045133;28;20518;-66
2022/06/13 15:14:37;;;;;;;1.27;1.17;;;23.30;58.90;;;;;;5040122;28;20499;-67
2022/06/13 15:17:06;;;;;;;1.50;1.40;;;23.20;58.60;;;;;;5048524;28;20487;-66
2022/06/13 15:19:37;;;;;;;1.70;1.40;;;23.20;58.70;;;;;;5049748;28;20418;-67
2022/06/13 15:22:07;;;;;;;1.30;1.20;;;23.10;58.40;;;;;;5052364;28;20398;-67
2022/06/13 15:24:56;;;;;;;1.83;1.73;;;23.20;58.80;;;;;;5048795;28;20450;-67
2022/06/13 15:27:23;;;;;;;1.00;0.97;;;23.20;58.80;;;;;;5049795;28;20504;-67
2022/06/13 15:30:32;;;;;;;2.07;1.37;;;23.20;58.70;;;;;;5054152;28;20397;-66
2022/06/13 15:33:21;;;;;;;2.13;1.50;;;23.20;58.70;;;;;;5029015;28;20940;-66
2022/06/13 15:35:53;;;;;;;1.43;1.33;;;23.20;59.00;;;;;;5016371;28;20436;-66
2022/06/13 15:38:23;;;;;;;1.50;1.40;;;23.10;59.40;;;;;;5020209;28;20489;-66
2022/06/13 15:40:53;;;;;;;1.87;1.77;;;23.20;58.80;;;;;;5036220;28;20800;-67
2022/06/13 15:43:30;;;;;;;1.50;1.40;;;23.20;58.80;;;;;;5034948;28;20531;-66
2022/06/13 15:45:56;;;;;;;2.03;1.60;;;23.10;58.40;;;;;;5034403;28;20490;-66
2022/06/13 15:48:23;;;;;;;1.43;1.40;;;23.00;58.80;;;;;;5033617;28;20428;-65
2022/06/13 15:51:13;;;;;;;1.53;1.33;;;22.90;60.70;;;;;;5034827;28;20414;-67
2022/06/13 15:53:38;;;;;;;1.73;1.63;;;22.90;59.60;;;;;;5034601;28;20777;-67
2022/06/13 15:56:04;;;;;;;1.30;1.20;;;22.90;59.30;;;;;;5034843;28;20472;-66
2022/06/13 15:58:30;;;;;;;1.60;1.50;;;23.00;59.50;;;;;;5034245;28;20709;-66
2022/06/13 16:00:56;;;;;;;1.67;1.40;;;23.00;60.20;;;;;;5035270;28;20501;-66
2022/06/13 16:03:24;;;;;;;1.83;1.33;;;23.10;59.80;;;;;;5034565;28;20236;-66
2022/06/13 16:05:58;;;;;;;1.57;1.20;;;23.10;59.30;;;;;;5035142;28;20447;-68
2022/06/13 16:08:25;;;;;;;1.63;1.53;;;23.10;58.30;;;;;;5033053;28;20925;-68
2022/06/13 16:10:54;;;;;;;1.53;1.43;;;23.10;58.90;;;;;;5034879;28;20431;-69
2022/06/13 16:13:55;;;;;;;1.20;1.10;;;23.10;58.80;;;;;;5033857;28;20469;-69
2022/06/13 16:16:25;;;;;;;2.10;1.70;;;23.00;58.70;;;;;;5028479;28;20518;-68
2022/06/13 16:18:52;;;;;;;1.57;1.47;;;23.00;58.40;;;;;;5034578;28;20396;-68
2022/06/13 16:21:26;;;;;;;1.53;1.43;;;23.00;59.00;;;;;;5034821;28;20425;-68
2022/06/13 16:24:19;;;;;;;3.00;1.60;;;23.00;60.70;;;;;;5034044;28;20554;-69
2022/06/13 16:26:46;;;;;;;3.23;1.40;;;23.00;61.40;;;;;;5033622;28;20504;-68
2022/06/13 16:29:15;;;;;;;1.63;1.53;;;23.10;59.60;;;;;;5034673;28;20411;-68
2022/06/13 16:31:43;;;;;;;1.67;1.57;;;23.10;59.20;;;;;;5033447;28;20428;-68
2022/06/13 16:34:09;;;;;;;2.07;1.50;;;23.10;59.90;;;;;;5034099;28;20578;-68
2022/06/13 16:36:40;;;;;;;1.40;1.30;;;23.10;59.80;;;;;;5033703;28;20576;-67
2022/06/13 16:39:15;;;;;;;1.70;1.60;;;23.10;60.60;;;;;;5034617;28;20385;-68
2022/06/13 16:41:46;;;;;;;3.03;1.70;;;23.00;59.80;;;;;;5035754;28;20410;-68
2022/06/13 16:44:14;;;;;;;1.77;1.67;;;23.00;60.30;;;;;;5033680;28;20433;-68
2022/06/13 16:46:50;;;;;;;2.20;1.97;;;23.00;59.60;;;;;;5032392;28;20439;-67
2022/06/13 16:49:32;;;;;;;2.40;1.70;;;22.90;60.00;;;;;;5034273;28;20426;-68
2022/06/13 16:52:04;;;;;;;1.60;1.50;;;22.90;60.50;;;;;;5030999;28;20430;-67
2022/06/13 16:54:38;;;;;;;1.93;1.73;;;22.90;60.60;;;;;;5031114;28;21065;-68
2022/06/13 16:57:26;;;;;;;3.87;1.80;;;22.90;59.90;;;;;;5033038;28;20766;-67
2022/06/13 17:00:05;;;;;;;4.27;1.77;;;22.90;60.30;;;;;;5032107;28;20429;-66
2022/06/13 17:02:34;;;;;;;1.30;1.20;;;22.80;60.50;;;;;;5040429;28;20954;-67
2022/06/13 17:05:00;;;;;;;4.63;1.67;;;22.80;60.20;;;;;;5033728;28;20479;-66
2022/06/13 17:07:31;;;;;;;2.20;1.90;;;22.70;59.60;;;;;;5034013;28;20417;-66
2022/06/13 17:10:09;;;;;;;1.40;1.30;;;22.60;59.50;;;;;;5033461;28;20428;-68
2022/06/13 17:12:47;;;;;;;3.27;2.97;;;22.50;59.20;;;;;;5021998;28;20454;-72
2022/06/13 17:15:14;;;;;;;1.40;1.30;;;22.50;61.60;;;;;;5029419;28;20490;-67
2022/06/13 17:17:40;;;;;;;2.53;1.77;;;22.50;61.70;;;;;;5033980;28;20407;-67
2022/06/13 17:20:13;;;;;;;1.60;1.43;;;22.40;61.40;;;;;;5033505;28;20481;-66
2022/06/13 17:22:40;;;;;;;1.83;1.70;;;22.40;61.10;;;;;;5027115;28;20465;-66
2022/06/13 17:25:06;;;;;;;1.50;1.40;;;22.30;61.00;;;;;;5032905;28;20465;-66
2022/06/13 17:33:03;;;;;;;6.03;1.77;;;22.20;60.60;;;;;;5031644;28;20834;-65
2022/06/13 17:35:29;;;;;;;1.80;1.70;;;22.10;61.00;;;;;;5026454;28;20441;-66
2022/06/13 17:37:54;;;;;;;2.00;1.77;;;22.00;61.30;;;;;;5031437;28;20186;-66
2022/06/13 17:40:20;;;;;;;1.67;1.57;;;21.80;62.10;;;;;;5031750;28;20186;-64
2022/06/13 17:42:46;;;;;;;1.80;1.67;;;21.80;62.80;;;;;;5032892;28;20228;-67
2022/06/13 17:45:16;;;;;;;1.40;1.30;;;21.70;63.10;;;;;;5029594;28;20441;-65
2022/06/13 17:47:44;;;;;;;2.57;2.37;;;21.60;63.70;;;;;;5031494;28;20429;-65
2022/06/13 17:50:12;;;;;;;4.00;2.50;;;21.50;64.40;;;;;;5030066;28;21118;-66
2022/06/13 17:52:37;;;;;;;2.57;1.77;;;21.50;64.50;;;;;;5029669;28;20434;-66
2022/06/13 17:55:04;;;;;;;2.43;2.20;;;21.40;64.30;;;;;;5031830;28;20451;-66
2022/06/13 17:57:30;;;;;;;2.70;2.50;;;21.40;64.80;;;;;;5032742;28;20261;-63
2022/06/13 17:59:57;;;;;;;2.20;2.10;;;21.40;64.70;;;;;;5029742;28;20541;-68
2022/06/13 18:02:24;;;;;;;3.57;2.03;;;21.30;64.30;;;;;;5031597;28;20424;-65
2022/06/13 18:04:52;;;;;;;1.73;1.63;;;21.30;64.90;;;;;;5031239;28;20453;-68
2022/06/13 18:07:20;;;;;;;2.67;1.80;;;21.30;65.10;;;;;;5029203;28;20432;-67
2022/06/13 18:09:49;;;;;;;1.90;1.80;;;21.30;64.50;;;;;;5029201;28;20539;-71
2022/06/13 18:12:17;;;;;;;2.00;1.90;;;21.20;63.30;;;;;;5022541;28;20798;-67
2022/06/13 18:14:43;;;;;;;1.63;1.53;;;21.20;62.80;;;;;;5027469;28;20534;-71
2022/06/13 18:17:11;;;;;;;1.27;1.17;;;21.20;63.60;;;;;;5029435;28;20432;-68
2022/06/13 18:19:38;;;;;;;1.60;1.50;;;21.20;64.30;;;;;;5032596;28;20189;-68
2022/06/13 18:22:04;;;;;;;1.40;1.30;;;21.20;64.50;;;;;;5032886;28;20405;-70
2022/06/13 18:24:30;;;;;;;1.60;1.50;;;21.20;64.60;;;;;;5031657;28;20802;-67
2022/06/13 18:27:11;;;;;;;2.70;1.57;;;21.20;64.90;;;;;;5030572;28;20407;-69
2022/06/13 18:29:41;;;;;;;1.53;1.43;;;21.10;65.40;;;;;;5030534;28;20182;-69
2022/06/13 18:32:07;;;;;;;9.07;5.93;;;21.10;65.50;;;;;;5031644;28;20968;-71
2022/06/13 18:34:33;;;;;;;2.70;2.30;;;21.00;65.90;;;;;;5024540;28;20476;-69
2022/06/13 18:36:59;;;;;;;2.73;1.90;;;20.90;66.30;;;;;;5031683;28;20475;-69
2022/06/13 18:39:26;;;;;;;4.13;1.97;;;20.80;66.80;;;;;;5031916;28;20500;-71
2022/06/13 18:41:51;;;;;;;2.20;2.10;;;20.80;67.00;;;;;;5029758;28;20235;-67
2022/06/13 18:44:18;;;;;;;1.60;1.50;;;20.70;67.30;;;;;;5030719;28;20529;-68
2022/06/13 18:46:47;;;;;;;1.50;1.40;;;20.60;67.40;;;;;;5032803;28;20190;-71
2022/06/13 18:49:13;;;;;;;2.40;1.80;;;20.50;67.50;;;;;;5032746;28;20454;-69
2022/06/13 18:51:39;;;;;;;2.13;1.93;;;20.40;67.10;;;;;;5032373;28;20921;-68
2022/06/13 18:54:06;;;;;;;3.83;1.60;;;20.30;67.60;;;;;;5030045;28;20232;-69
2022/06/13 18:56:33;;;;;;;2.27;1.83;;;20.20;67.50;;;;;;5030434;28;20432;-71
2022/06/13 18:59:00;;;;;;;3.40;2.13;;;20.20;67.80;;;;;;5031098;28;20877;-70
2022/06/13 19:01:26;;;;;;;1.67;1.57;;;20.10;68.50;;;;;;5032392;28;20424;-69
2022/06/13 19:03:56;;;;;;;1.83;1.67;;;20.00;69.30;;;;;;5030075;28;20453;-68
2022/06/13 19:06:23;;;;;;;1.70;1.50;;;20.00;69.70;;;;;;5030768;28;20795;-66
2022/06/13 19:08:51;;;;;;;5.20;2.10;;;19.90;70.10;;;;;;5031856;28;20428;-66
2022/06/13 19:11:18;;;;;;;3.00;2.80;;;19.80;70.20;;;;;;5036328;28;20411;-67
2022/06/13 19:13:46;;;;;;;2.93;2.27;;;19.80;70.50;;;;;;5035213;28;20987;-69
2022/06/13 19:16:15;;;;;;;4.90;2.10;;;19.70;70.80;;;;;;5035844;28;20423;-70
2022/06/13 19:18:43;;;;;;;1.80;1.70;;;19.70;71.00;;;;;;5036288;28;20490;-68
2022/06/13 19:21:08;;;;;;;3.50;1.50;;;19.60;71.90;;;;;;5035010;28;20507;-69
2022/06/13 19:23:34;;;;;;;2.27;2.17;;;19.60;72.10;;;;;;5035061;28;20483;-69
2022/06/13 19:26:01;;;;;;;1.90;1.80;;;19.50;72.30;;;;;;5035017;28;20636;-69
2022/06/13 19:28:36;;;;;;;1.77;1.40;;;19.40;72.50;;;;;;5046156;28;20251;-68
2022/06/13 19:31:03;;;;;;;2.27;2.07;;;19.40;73.10;;;;;;5040327;28;20402;-68
2022/06/13 19:33:29;;;;;;;1.93;1.73;;;19.30;73.20;;;;;;5035119;28;20460;-68
2022/06/13 19:35:57;;;;;;;2.90;2.40;;;19.20;73.60;;;;;;5035939;28;20418;-67
2022/06/13 19:38:25;;;;;;;2.30;2.20;;;19.20;74.30;;;;;;5034325;28;20448;-70
2022/06/13 19:40:56;;;;;;;2.37;2.13;;;19.10;74.40;;;;;;5030804;28;20423;-69
2022/06/13 19:43:24;;;;;;;2.50;1.60;;;19.10;74.60;;;;;;5029782;28;20870;-68
2022/06/13 19:45:52;;;;;;;1.77;1.67;;;19.00;75.20;;;;;;5029455;28;20423;-67
2022/06/13 19:48:18;;;;;;;2.10;2.00;;;18.90;75.20;;;;;;5036149;28;20466;-68
2022/06/13 19:50:44;;;;;;;2.30;2.13;;;18.90;75.80;;;;;;5033854;28;20418;-68
2022/06/13 19:53:12;;;;;;;2.17;1.90;;;18.80;75.80;;;;;;5032719;28;20466;-70
2022/06/13 19:55:46;;;;;;;2.33;2.13;;;18.80;76.70;;;;;;5033654;28;20437;-69
2022/06/13 19:58:18;;;;;;;2.90;2.00;;;18.70;76.80;;;;;;5029447;28;20860;-69
2022/06/13 20:00:45;;;;;;;2.03;1.93;;;18.70;77.00;;;;;;5027403;28;20415;-68
2022/06/13 20:03:12;;;;;;;2.03;1.80;;;18.60;77.40;;;;;;5033131;28;20501;-68
2022/06/13 20:08:23;;;;;;;2.73;2.10;;;18.50;77.90;;;;;;5030964;28;20419;-70
2022/06/13 20:08:26;;;;;;;2.00;1.90;;;18.50;79.20;;;;;;5031929;28;20411;-68
2022/06/13 20:10:53;;;;;;;3.03;2.73;;;18.30;79.40;;;;;;5033859;28;20858;-67
2022/06/13 20:13:21;;;;;;;2.70;2.50;;;18.20;79.30;;;;;;5031437;28;20496;-67
2022/06/13 20:15:46;;;;;;;2.43;1.67;;;18.20;80.40;;;;;;5025252;28;20794;-68
2022/06/13 20:18:15;;;;;;;2.20;2.00;;;18.10;80.60;;;;;;5030840;28;20414;-68
2022/06/13 20:20:41;;;;;;;2.97;2.67;;;18.10;80.60;;;;;;5032984;28;20265;-67
2022/06/13 20:23:07;;;;;;;2.13;2.00;;;18.10;80.70;;;;;;5032450;28;20436;-68
2022/06/13 20:25:35;;;;;;;2.50;2.30;;;18.00;80.80;;;;;;5034353;28;20490;-69
2022/06/13 20:28:05;;;;;;;2.50;2.30;;;18.00;80.90;;;;;;5034570;28;20204;-70
2022/06/13 20:30:40;;;;;;;3.80;1.53;;;18.00;81.50;;;;;;5034546;28;20508;-67
2022/06/13 20:33:13;;;;;;;2.50;2.10;;;18.00;81.50;;;;;;5034092;28;20499;-69
2022/06/13 20:35:40;;;;;;;1.97;1.87;;;18.00;82.10;;;;;;5034570;28;20418;-69
2022/06/13 20:38:07;;;;;;;3.23;1.90;;;17.90;82.10;;;;;;5033503;28;20814;-70
2022/06/13 20:40:33;;;;;;;3.53;2.47;;;17.90;82.40;;;;;;5033720;28;20429;-67
2022/06/13 20:43:02;;;;;;;2.67;2.47;;;17.90;82.70;;;;;;5032461;28;20429;-69
2022/06/13 20:45:31;;;;;;;2.47;2.30;;;17.80;82.90;;;;;;5034370;28;20176;-68
2022/06/13 20:48:00;;;;;;;2.07;1.83;;;17.80;83.50;;;;;;5033505;28;20437;-67
2022/06/13 20:50:30;;;;;;;6.47;2.03;;;17.70;83.80;;;;;;5032498;28;20436;-68
2022/06/13 20:52:57;;;;;;;2.00;1.90;;;17.70;84.10;;;;;;5032693;28;20519;-68
2022/06/13 20:55:22;;;;;;;3.40;2.00;;;17.60;84.60;;;;;;5032744;28;20414;-70
2022/06/13 20:57:48;;;;;;;5.40;2.40;;;17.60;84.80;;;;;;5032961;28;20400;-70
2022/06/13 21:00:16;;;;;;;3.50;2.57;;;17.60;85.70;;;;;;5032077;28;20644;-67
2022/06/13 21:02:43;;;;;;;2.00;1.90;;;17.50;85.50;;;;;;5034168;28;20185;-67
2022/06/13 21:05:12;;;;;;;2.07;1.97;;;17.50;86.00;;;;;;5037590;28;20440;-69
2022/06/13 21:07:38;;;;;;;3.33;2.40;;;17.40;86.20;;;;;;5030374;28;20425;-69
2022/06/13 21:10:08;;;;;;;2.43;2.17;;;17.40;87.30;;;;;;5033864;28;20419;-69
2022/06/13 21:12:44;;;;;;;2.03;1.93;;;17.40;87.30;;;;;;5033097;28;20771;-67
2022/06/13 21:15:17;;;;;;;5.10;2.37;;;17.30;87.30;;;;;;5033717;28;20450;-67
2022/06/13 21:17:43;;;;;;;2.43;2.10;;;17.30;87.30;;;;;;5034307;28;20407;-69
2022/06/13 21:20:10;;;;;;;3.63;2.60;;;17.20;87.60;;;;;;5031730;28;20507;-69
2022/06/13 21:22:38;;;;;;;3.13;2.30;;;17.20;88.30;;;;;;5033625;28;20429;-69
2022/06/13 21:25:07;;;;;;;2.63;2.43;;;17.10;88.90;;;;;;5032950;28;20457;-68
2022/06/13 21:27:32;;;;;;;2.53;2.33;;;17.00;89.30;;;;;;5031654;28;20430;-68
2022/06/13 21:29:59;;;;;;;2.40;2.20;;;17.00;89.80;;;;;;5030877;28;20552;-68
2022/06/13 21:32:25;;;;;;;4.00;2.53;;;16.90;90.50;;;;;;5031728;28;20210;-69
2022/06/13 21:34:51;;;;;;;2.30;2.10;;;16.90;90.50;;;;;;5033505;28;20453;-69
2022/06/13 21:37:16;;;;;;;4.97;3.50;;;16.80;90.80;;;;;;5032266;28;20813;-68
2022/06/13 21:39:42;;;;;;;5.03;2.97;;;16.80;91.00;;;;;;5031128;28;20644;-69
2022/06/13 21:42:09;;;;;;;4.03;2.80;;;16.70;90.90;;;;;;5032762;28;20174;-67
2022/06/13 21:44:38;;;;;;;2.77;2.53;;;16.60;91.10;;;;;;5032500;28;20431;-70
2022/06/13 21:47:04;;;;;;;2.40;2.30;;;16.60;91.20;;;;;;5034009;28;20424;-67
2022/06/13 21:49:30;;;;;;;3.17;2.60;;;16.50;91.30;;;;;;5032709;28;20456;-69
2022/06/13 21:51:56;;;;;;;2.87;2.67;;;16.50;91.50;;;;;;5033823;28;20493;-67
2022/06/13 21:54:22;;;;;;;3.30;2.67;;;16.50;91.80;;;;;;5031240;28;20214;-69
2022/06/13 21:56:48;;;;;;;3.47;3.07;;;16.40;92.00;;;;;;5033603;28;20397;-68
2022/06/13 21:59:14;;;;;;;4.00;2.60;;;16.30;92.30;;;;;;5032058;28;20201;-69
